createdAt,value
2017-10-25T00:02:25.587Z,3.70
2017-10-25T00:04:54.827Z,5.00
2017-10-25T00:07:23.323Z,4.13
2017-10-25T00:09:51.808Z,3.57
2017-10-25T00:12:20.279Z,5.37
2017-10-25T00:14:48.754Z,5.40
2017-10-25T00:17:17.235Z,3.93
2017-10-25T00:19:45.709Z,4.10
2017-10-25T00:22:14.159Z,4.07
2017-10-25T00:24:44.404Z,3.73
2017-10-25T00:27:12.871Z,4.07
2017-10-25T00:29:42.100Z,4.63
2017-10-25T00:32:10.708Z,5.60
2017-10-25T00:34:39.193Z,5.57
2017-10-25T00:37:08.682Z,4.73
2017-10-25T00:39:37.128Z,5.00
2017-10-25T00:42:06.368Z,4.70
2017-10-25T00:44:34.828Z,4.50
2017-10-25T00:47:03.556Z,4.77
2017-10-25T00:49:32.021Z,4.20
2017-10-25T00:52:00.510Z,4.20
2017-10-25T00:54:28.610Z,4.00
2017-10-25T00:56:57.831Z,3.90
2017-10-25T00:59:26.731Z,4.73
2017-10-25T01:01:55.954Z,5.20
2017-10-25T01:04:24.075Z,4.50
2017-10-25T01:06:52.535Z,6.23
2017-10-25T01:09:21.020Z,4.10
2017-10-25T01:11:49.471Z,4.40
2017-10-25T01:14:18.748Z,4.93
2017-10-25T01:16:47.995Z,4.03
2017-10-25T01:19:16.111Z,4.47
2017-10-25T01:21:44.444Z,20.67
2017-10-25T01:24:12.723Z,4.90
2017-10-25T01:26:40.639Z,5.30
2017-10-25T01:29:10.607Z,5.40
2017-10-25T01:31:38.731Z,5.10
2017-10-25T01:34:07.192Z,3.30
2017-10-25T01:36:34.976Z,4.30
2017-10-25T01:39:03.071Z,4.00
2017-10-25T01:41:31.991Z,6.17
2017-10-25T01:44:00.119Z,3.53
2017-10-25T01:46:27.936Z,5.00
2017-10-25T01:48:56.135Z,4.50
2017-10-25T01:51:24.591Z,4.30
2017-10-25T01:53:52.947Z,4.70
2017-10-25T01:56:21.908Z,3.70
2017-10-25T01:58:53.043Z,4.23
2017-10-25T02:01:21.655Z,3.67
2017-10-25T02:03:51.119Z,4.30
2017-10-25T02:06:19.527Z,5.90
2017-10-25T02:08:47.993Z,3.97
2017-10-25T02:11:16.666Z,4.00
2017-10-25T02:13:44.784Z,4.33
2017-10-25T02:16:14.104Z,4.20
2017-10-25T02:18:42.581Z,4.83
2017-10-25T02:21:11.803Z,4.80
2017-10-25T02:23:40.275Z,3.67
2017-10-25T02:26:08.412Z,3.97
2017-10-25T02:28:36.893Z,4.60
2017-10-25T02:31:06.112Z,3.20
2017-10-25T02:33:35.363Z,7.23
2017-10-25T02:36:03.859Z,3.57
2017-10-25T02:38:32.373Z,3.00
2017-10-25T02:41:01.615Z,3.77
2017-10-25T02:43:30.076Z,4.03
2017-10-25T02:45:58.207Z,3.50
2017-10-25T02:48:26.691Z,4.70
2017-10-25T02:50:56.675Z,4.10
2017-10-25T02:53:25.144Z,4.67
2017-10-25T02:55:53.768Z,3.70
2017-10-25T02:58:22.395Z,3.50
2017-10-25T03:00:51.086Z,4.10
2017-10-25T03:03:20.319Z,3.63
2017-10-25T03:05:48.898Z,3.90
2017-10-25T03:08:17.372Z,4.23
2017-10-25T03:10:45.823Z,3.50
2017-10-25T03:13:14.487Z,3.97
2017-10-25T03:15:43.735Z,3.70
2017-10-25T03:18:12.191Z,2.90
2017-10-25T03:20:41.547Z,4.43
2017-10-25T03:23:09.639Z,3.07
2017-10-25T03:25:37.415Z,3.80
2017-10-25T03:28:06.670Z,2.97
2017-10-25T03:30:35.129Z,3.63
2017-10-25T03:33:04.362Z,3.33
2017-10-25T03:35:32.815Z,3.83
2017-10-25T03:38:01.451Z,3.67
2017-10-25T03:40:29.908Z,4.93
2017-10-25T03:42:58.364Z,3.40
2017-10-25T03:45:26.844Z,4.80
2017-10-25T03:47:56.163Z,3.30
2017-10-25T03:50:24.635Z,3.83
2017-10-25T03:52:53.095Z,3.73
2017-10-25T03:55:22.335Z,3.63
2017-10-25T03:57:50.787Z,4.10
2017-10-25T04:00:20.024Z,3.40
2017-10-25T04:02:48.476Z,3.00
2017-10-25T04:05:17.718Z,3.47
2017-10-25T04:07:46.207Z,5.20
2017-10-25T04:10:15.472Z,3.77
2017-10-25T04:12:44.024Z,3.57
2017-10-25T04:15:13.088Z,3.23
2017-10-25T04:17:41.551Z,4.57
2017-10-25T04:20:10.019Z,4.33
2017-10-25T04:22:38.620Z,2.90
2017-10-25T04:25:07.075Z,3.20
2017-10-25T04:27:35.229Z,3.43
2017-10-25T04:30:04.463Z,3.60
2017-10-25T04:32:32.933Z,3.20
2017-10-25T04:35:01.411Z,2.93
2017-10-25T04:37:29.891Z,3.03
2017-10-25T04:39:59.315Z,3.37
2017-10-25T04:42:27.780Z,3.37
2017-10-25T04:44:56.243Z,3.00
2017-10-25T04:47:25.490Z,3.13
2017-10-25T04:49:53.956Z,3.20
2017-10-25T04:52:22.420Z,3.50
2017-10-25T04:54:51.668Z,3.00
2017-10-25T04:57:20.263Z,3.40
2017-10-25T04:59:48.731Z,3.93
2017-10-25T05:02:17.200Z,5.30
2017-10-25T05:04:45.689Z,5.30
2017-10-25T05:07:14.391Z,3.30
2017-10-25T05:09:42.897Z,3.40
2017-10-25T05:12:11.796Z,4.10
2017-10-25T05:14:40.272Z,3.33
2017-10-25T05:17:09.531Z,4.50
2017-10-25T05:19:37.991Z,3.50
2017-10-25T05:22:06.494Z,3.60
2017-10-25T05:24:34.955Z,3.80
2017-10-25T05:27:03.427Z,4.23
2017-10-25T05:29:32.306Z,3.57
2017-10-25T05:32:01.548Z,3.90
2017-10-25T05:34:30.020Z,5.17
2017-10-25T05:36:58.514Z,4.30
2017-10-25T05:39:26.992Z,4.20
2017-10-25T05:41:55.448Z,4.40
2017-10-25T05:44:24.810Z,4.10
2017-10-25T05:46:53.416Z,4.13
2017-10-25T05:49:22.633Z,3.70
2017-10-25T05:51:51.911Z,3.47
2017-10-25T05:54:21.147Z,4.17
2017-10-25T05:56:49.604Z,3.57
2017-10-25T05:59:18.092Z,3.40
2017-10-25T06:01:46.791Z,4.73
2017-10-25T06:04:16.061Z,4.80
2017-10-25T06:06:44.525Z,4.73
2017-10-25T06:09:13.000Z,4.70
2017-10-25T06:11:41.300Z,6.20
2017-10-25T06:14:09.792Z,8.53
2017-10-25T06:16:39.596Z,4.37
2017-10-25T06:19:09.395Z,4.57
2017-10-25T06:21:37.680Z,6.93
2017-10-25T06:24:05.972Z,3.77
2017-10-25T06:26:35.951Z,4.13
2017-10-25T06:29:04.402Z,3.63
2017-10-25T06:31:33.655Z,4.53
2017-10-25T06:34:02.120Z,4.37
2017-10-25T06:36:30.615Z,4.30
2017-10-25T06:38:59.091Z,6.10
2017-10-25T06:41:27.563Z,5.00
2017-10-25T06:43:55.683Z,4.43
2017-10-25T06:46:24.148Z,5.63
2017-10-25T06:48:52.636Z,4.30
2017-10-25T06:51:20.743Z,4.80
2017-10-25T06:53:49.636Z,4.60
2017-10-25T06:56:18.913Z,5.73
2017-10-25T06:58:47.555Z,6.00
2017-10-25T07:01:16.020Z,5.30
2017-10-25T07:03:44.502Z,5.17
2017-10-25T07:06:12.959Z,5.27
2017-10-25T07:08:43.084Z,5.67
2017-10-25T07:11:11.686Z,4.30
2017-10-25T07:13:40.197Z,4.13
2017-10-25T07:16:08.677Z,7.43
2017-10-25T07:18:37.149Z,5.90
2017-10-25T07:21:05.638Z,11.57
2017-10-25T07:23:34.222Z,6.70
2017-10-25T07:26:02.391Z,6.37
2017-10-25T07:28:30.879Z,10.73
2017-10-25T07:30:59.351Z,5.90
2017-10-25T07:33:27.815Z,6.27
2017-10-25T07:35:57.064Z,6.83
2017-10-25T07:38:25.638Z,7.17
2017-10-25T07:40:53.902Z,6.17
2017-10-25T07:43:22.375Z,6.47
2017-10-25T07:45:50.860Z,7.50
2017-10-25T07:48:19.675Z,6.33
2017-10-25T07:50:48.139Z,8.20
2017-10-25T07:53:16.623Z,6.67
2017-10-25T07:55:45.156Z,7.20
2017-10-25T07:58:13.637Z,6.00
2017-10-25T08:00:42.231Z,7.17
2017-10-25T08:03:11.479Z,5.30
2017-10-25T08:05:39.952Z,6.37
2017-10-25T08:08:08.431Z,8.33
2017-10-25T08:10:36.884Z,5.87
2017-10-25T08:13:06.164Z,5.53
2017-10-25T08:15:34.631Z,5.80
2017-10-25T08:18:03.189Z,11.43
2017-10-25T08:20:31.711Z,4.73
2017-10-25T08:23:00.182Z,4.93
2017-10-25T08:25:28.650Z,5.20
2017-10-25T08:27:57.113Z,7.33
2017-10-25T08:30:25.573Z,5.07
2017-10-25T08:32:54.053Z,4.77
2017-10-25T08:35:23.438Z,4.60
2017-10-25T08:37:52.757Z,5.80
2017-10-25T08:40:21.987Z,5.53
2017-10-25T08:42:50.464Z,5.07
2017-10-25T08:45:18.747Z,4.60
2017-10-25T08:47:47.068Z,4.13
2017-10-25T08:50:15.664Z,6.80
2017-10-25T08:52:44.140Z,9.00
2017-10-25T08:55:12.618Z,5.80
2017-10-25T08:57:41.087Z,5.93
2017-10-25T09:00:08.887Z,4.80
2017-10-25T09:02:38.113Z,4.13
2017-10-25T09:05:06.587Z,4.40
2017-10-25T09:07:35.048Z,6.83
2017-10-25T09:10:03.604Z,3.57
2017-10-25T09:12:31.712Z,3.60
2017-10-25T09:15:00.939Z,5.40
2017-10-25T09:17:29.426Z,6.93
2017-10-25T09:19:57.920Z,3.70
2017-10-25T09:22:28.071Z,3.60
2017-10-25T09:24:56.543Z,4.00
2017-10-25T09:27:25.043Z,3.03
2017-10-25T09:29:53.739Z,2.67
2017-10-25T09:32:22.232Z,3.83
2017-10-25T09:34:51.466Z,2.70
2017-10-25T09:37:20.056Z,2.50
2017-10-25T09:39:48.527Z,2.30
2017-10-25T09:42:17.012Z,2.23
2017-10-25T09:44:45.488Z,2.77
2017-10-25T09:47:13.959Z,1.93
2017-10-25T09:49:42.423Z,3.00
2017-10-25T09:52:11.819Z,1.93
2017-10-25T09:54:40.297Z,1.50
2017-10-25T09:57:08.776Z,1.73
2017-10-25T09:59:37.286Z,2.37
2017-10-25T10:02:06.493Z,1.67
2017-10-25T10:04:34.960Z,1.27
2017-10-25T10:07:04.184Z,1.93
2017-10-25T10:09:32.655Z,1.50
2017-10-25T10:12:02.005Z,1.63
2017-10-25T10:14:30.484Z,2.27
2017-10-25T10:16:58.948Z,1.40
2017-10-25T10:19:27.423Z,1.30
2017-10-25T10:21:55.704Z,1.70
2017-10-25T10:24:25.676Z,1.60
2017-10-25T10:26:54.262Z,3.60
2017-10-25T10:29:22.736Z,2.17
2017-10-25T10:31:51.195Z,1.47
2017-10-25T10:34:19.675Z,1.30
2017-10-25T10:36:48.134Z,1.40
2017-10-25T10:39:16.255Z,3.27
2017-10-25T10:41:44.728Z,1.47
2017-10-25T10:44:13.232Z,1.20
2017-10-25T10:46:41.699Z,1.30
2017-10-25T10:49:10.165Z,1.33
2017-10-25T10:51:38.634Z,1.00
2017-10-25T10:54:07.091Z,0.93
2017-10-25T10:56:35.571Z,3.53
2017-10-25T10:59:04.099Z,2.23
2017-10-25T11:01:32.241Z,2.13
2017-10-25T11:04:00.687Z,1.13
2017-10-25T11:06:29.917Z,2.20
2017-10-25T11:08:58.377Z,1.57
2017-10-25T11:11:27.816Z,1.90
2017-10-25T11:13:55.939Z,1.87
2017-10-25T11:16:24.411Z,1.37
2017-10-25T11:18:52.895Z,2.70
2017-10-25T11:21:21.375Z,1.63
2017-10-25T11:23:49.948Z,1.10
2017-10-25T11:26:18.412Z,2.13
2017-10-25T11:28:46.916Z,1.63
2017-10-25T11:31:15.383Z,3.17
2017-10-25T11:33:43.633Z,1.30
2017-10-25T11:36:11.923Z,1.33
2017-10-25T11:38:40.399Z,0.97
2017-10-25T11:41:08.692Z,0.83
2017-10-25T11:43:37.187Z,1.30
2017-10-25T11:46:05.673Z,1.33
2017-10-25T11:48:34.142Z,2.30
2017-10-25T11:51:02.611Z,1.93
2017-10-25T11:53:31.232Z,1.30
2017-10-25T11:55:59.699Z,2.20
2017-10-25T11:58:28.267Z,1.10
2017-10-25T12:00:56.752Z,1.03
2017-10-25T12:03:25.252Z,1.33
2017-10-25T12:05:53.718Z,0.80
2017-10-25T12:08:22.220Z,0.90
2017-10-25T12:10:50.708Z,1.50
2017-10-25T12:13:19.227Z,1.10
2017-10-25T12:15:48.572Z,1.20
2017-10-25T12:18:17.031Z,2.97
2017-10-25T12:20:45.521Z,1.20
2017-10-25T12:23:13.998Z,1.20
2017-10-25T12:25:42.488Z,1.03
2017-10-25T12:28:11.073Z,1.67
2017-10-25T12:30:39.567Z,1.20
2017-10-25T12:33:08.049Z,0.70
2017-10-25T12:35:36.508Z,1.70
2017-10-25T12:38:04.652Z,3.40
2017-10-25T12:40:33.153Z,1.97
2017-10-25T12:43:02.387Z,1.47
2017-10-25T12:45:30.879Z,1.20
2017-10-25T12:47:59.388Z,1.10
2017-10-25T12:50:27.883Z,1.83
2017-10-25T12:52:56.359Z,2.07
2017-10-25T12:55:24.834Z,1.57
2017-10-25T12:57:53.287Z,1.17
2017-10-25T13:00:21.857Z,1.27
2017-10-25T13:02:50.323Z,1.37
2017-10-25T13:05:18.831Z,1.27
2017-10-25T13:07:47.427Z,3.60
2017-10-25T13:10:40.847Z,1.30
2017-10-25T13:13:36.806Z,1.17
2017-10-25T13:16:17.827Z,3.90
2017-10-25T13:18:46.407Z,1.90
2017-10-25T13:21:14.975Z,1.17
2017-10-25T13:23:43.457Z,2.40
2017-10-25T13:26:11.962Z,1.63
2017-10-25T13:28:40.636Z,2.20
2017-10-25T13:31:08.484Z,1.77
2017-10-25T13:33:36.945Z,1.30
2017-10-25T13:36:05.471Z,1.27
2017-10-25T13:38:33.959Z,1.00
2017-10-25T13:41:02.659Z,1.33
2017-10-25T13:43:31.163Z,4.90
2017-10-25T13:46:00.393Z,1.50
2017-10-25T13:48:28.887Z,3.37
2017-10-25T13:50:57.347Z,1.37
2017-10-25T13:53:25.819Z,2.33
2017-10-25T13:55:54.295Z,2.00
2017-10-25T13:58:22.813Z,1.90
2017-10-25T14:00:51.292Z,3.43
2017-10-25T14:03:19.810Z,1.43
2017-10-25T14:05:48.100Z,5.43
2017-10-25T14:08:16.573Z,2.30
2017-10-25T14:10:45.296Z,2.13
2017-10-25T14:13:13.780Z,2.90
2017-10-25T14:15:43.073Z,2.00
2017-10-25T14:18:12.312Z,1.27
2017-10-25T14:20:40.796Z,1.63
2017-10-25T14:23:09.343Z,1.80
2017-10-25T14:25:38.587Z,4.13
2017-10-25T14:28:18.183Z,1.63
2017-10-25T14:30:47.686Z,3.90
2017-10-25T14:33:16.784Z,2.40
2017-10-25T14:35:46.029Z,2.10
2017-10-25T14:38:14.651Z,4.10
2017-10-25T14:40:43.230Z,1.50
2017-10-25T14:43:11.352Z,0.93
2017-10-25T14:45:39.823Z,0.73
2017-10-25T14:48:08.425Z,2.00
2017-10-25T14:50:36.907Z,0.80
2017-10-25T14:53:05.627Z,1.73
2017-10-25T14:55:34.091Z,1.73
2017-10-25T14:58:02.626Z,2.10
2017-10-25T15:00:31.864Z,2.57
2017-10-25T15:03:00.382Z,0.70
2017-10-25T15:05:28.900Z,1.93
2017-10-25T15:07:58.185Z,0.77
2017-10-25T15:10:26.836Z,0.60
2017-10-25T15:12:55.328Z,0.60
2017-10-25T15:15:23.808Z,1.10
2017-10-25T15:17:52.293Z,1.00
2017-10-25T15:20:20.780Z,1.27
2017-10-25T15:22:49.258Z,4.33
2017-10-25T15:25:17.791Z,1.93
2017-10-25T15:27:47.024Z,2.60
2017-10-25T15:30:15.508Z,1.20
2017-10-25T15:32:43.984Z,2.40
2017-10-25T15:35:12.656Z,3.43
2017-10-25T15:37:41.128Z,2.50
2017-10-25T15:40:10.355Z,2.13
2017-10-25T15:42:38.913Z,1.77
2017-10-25T15:45:07.359Z,3.90
2017-10-25T15:47:35.840Z,0.90
2017-10-25T15:50:03.970Z,0.80
2017-10-25T15:52:32.458Z,2.57
2017-10-25T15:55:00.940Z,1.37
2017-10-25T15:57:29.472Z,1.37
2017-10-25T15:59:57.971Z,0.80
2017-10-25T16:02:27.211Z,1.90
2017-10-25T16:04:55.694Z,4.63
2017-10-25T16:07:24.253Z,0.80
2017-10-25T16:09:52.744Z,1.90
2017-10-25T16:12:21.211Z,5.10
2017-10-25T16:14:50.683Z,1.20
2017-10-25T16:17:19.156Z,1.87
2017-10-25T16:19:47.640Z,1.63
2017-10-25T16:22:16.128Z,1.93
2017-10-25T16:24:44.599Z,4.77
2017-10-25T16:27:13.087Z,4.40
2017-10-25T16:29:41.610Z,1.93
2017-10-25T16:32:10.939Z,3.10
2017-10-25T16:34:39.453Z,3.20
2017-10-25T16:37:07.939Z,2.30
2017-10-25T16:39:36.484Z,4.70
2017-10-25T16:42:04.971Z,2.33
2017-10-25T16:44:33.428Z,2.47
2017-10-25T16:47:02.706Z,5.20
2017-10-25T16:49:31.183Z,2.87
2017-10-25T16:51:59.673Z,3.70
2017-10-25T16:54:28.100Z,5.37
2017-10-25T16:56:56.562Z,6.67
2017-10-25T16:59:25.836Z,8.13
2017-10-25T17:01:54.400Z,4.80
2017-10-25T17:04:22.679Z,6.70
2017-10-25T17:06:51.223Z,5.53
2017-10-25T17:09:19.725Z,4.60
2017-10-25T17:11:47.990Z,6.27
2017-10-25T17:14:16.503Z,5.50
2017-10-25T17:16:44.988Z,7.60
2017-10-25T17:19:13.486Z,4.50
2017-10-25T17:21:42.031Z,4.70
2017-10-25T17:24:10.341Z,8.90
2017-10-25T17:26:38.615Z,5.20
2017-10-25T17:29:07.114Z,4.97
2017-10-25T17:31:35.599Z,3.90
2017-10-25T17:34:04.616Z,6.47
2017-10-25T17:36:33.859Z,3.83
2017-10-25T17:39:02.375Z,5.80
2017-10-25T17:41:30.864Z,5.33
2017-10-25T17:43:59.910Z,5.30
2017-10-25T17:46:28.481Z,4.87
2017-10-25T17:48:57.005Z,4.87
2017-10-25T17:51:25.510Z,8.70
2017-10-25T17:53:54.792Z,5.90
2017-10-25T17:56:23.268Z,12.47
2017-10-25T17:58:53.272Z,6.23
2017-10-25T18:01:21.544Z,6.60
2017-10-25T18:03:50.069Z,5.80
2017-10-25T18:06:18.612Z,7.30
2017-10-25T18:08:47.083Z,6.97
2017-10-25T18:11:15.560Z,9.37
2017-10-25T18:13:44.028Z,6.80
2017-10-25T18:16:12.160Z,8.03
2017-10-25T18:18:42.308Z,8.23
2017-10-25T18:21:11.585Z,11.17
2017-10-25T18:23:40.429Z,10.30
2017-10-25T18:26:08.922Z,11.23
2017-10-25T18:28:37.423Z,17.63
2017-10-25T18:31:05.904Z,12.97
2017-10-25T18:33:34.391Z,12.70
2017-10-25T18:36:02.867Z,13.50
2017-10-25T18:38:31.371Z,14.87
2017-10-25T18:41:00.631Z,15.10
2017-10-25T18:43:29.176Z,13.97
2017-10-25T18:45:58.471Z,28.90
2017-10-25T18:48:26.995Z,17.63
2017-10-25T18:50:55.467Z,17.93
2017-10-25T18:53:23.995Z,18.63
2017-10-25T18:55:52.549Z,17.27
2017-10-25T18:58:21.044Z,19.13
2017-10-25T19:00:49.509Z,19.13
2017-10-25T19:03:18.026Z,22.27
2017-10-25T19:05:47.669Z,20.30
2017-10-25T19:08:16.728Z,17.77
2017-10-25T19:10:47.606Z,18.10
2017-10-25T19:13:16.940Z,18.00
2017-10-25T19:15:45.525Z,16.17
2017-10-25T19:18:14.013Z,17.40
2017-10-25T19:20:42.544Z,18.90
2017-10-25T19:23:11.140Z,17.30
2017-10-25T19:25:40.428Z,19.60
2017-10-25T19:28:08.919Z,24.17
2017-10-25T19:30:37.442Z,16.57
2017-10-25T19:33:05.925Z,25.17
2017-10-25T19:35:34.417Z,21.77
2017-10-25T19:38:03.066Z,21.87
2017-10-25T19:40:32.332Z,18.60
2017-10-25T19:43:00.823Z,19.50
2017-10-25T19:45:31.020Z,17.90
2017-10-25T19:47:59.585Z,20.60
2017-10-25T19:50:28.089Z,22.27
2017-10-25T19:52:56.616Z,19.67
2017-10-25T19:55:25.985Z,18.67
2017-10-25T19:57:54.523Z,21.23
2017-10-25T20:00:23.024Z,19.07
2017-10-25T20:02:51.525Z,21.33
2017-10-25T20:05:20.007Z,23.37
2017-10-25T20:07:48.521Z,20.20
2017-10-25T20:10:17.001Z,21.93
2017-10-25T20:12:45.505Z,20.27
2017-10-25T20:15:15.248Z,19.50
2017-10-25T20:17:43.734Z,21.53
2017-10-25T20:20:12.232Z,18.70
2017-10-25T20:22:40.765Z,19.70
2017-10-25T20:25:10.028Z,18.57
2017-10-25T20:27:38.530Z,20.07
2017-10-25T20:30:07.457Z,18.17
2017-10-25T20:32:35.944Z,18.03
2017-10-25T20:35:04.462Z,19.93
2017-10-25T20:37:32.968Z,20.50
2017-10-25T20:40:01.493Z,17.87
2017-10-25T20:42:29.644Z,21.60
2017-10-25T20:44:58.374Z,20.90
2017-10-25T20:47:26.890Z,19.40
2017-10-25T20:49:55.407Z,19.00
2017-10-25T20:52:24.648Z,19.80
2017-10-25T20:54:53.280Z,19.70
2017-10-25T20:57:22.624Z,19.40
2017-10-25T20:59:51.135Z,17.80
2017-10-25T21:02:19.628Z,17.50
2017-10-25T21:04:48.088Z,18.10
2017-10-25T21:07:16.575Z,17.03
2017-10-25T21:09:45.159Z,17.60
2017-10-25T21:12:13.741Z,17.27
2017-10-25T21:14:42.295Z,16.83
2017-10-25T21:17:10.763Z,19.23
2017-10-25T21:19:40.006Z,18.97
2017-10-25T21:22:08.632Z,18.13
2017-10-25T21:24:37.116Z,17.27
2017-10-25T21:27:07.117Z,17.33
2017-10-25T21:29:35.623Z,19.90
2017-10-25T21:32:04.872Z,19.30
2017-10-25T21:34:33.360Z,17.10
2017-10-25T21:37:01.939Z,16.40
2017-10-25T21:39:30.479Z,15.97
2017-10-25T21:41:59.713Z,18.70
2017-10-25T21:44:28.188Z,15.47
2017-10-25T21:46:56.654Z,16.13
2017-10-25T21:49:25.136Z,15.60
2017-10-25T21:51:54.394Z,15.40
2017-10-25T21:54:22.903Z,15.77
2017-10-25T21:56:51.512Z,17.20
2017-10-25T21:59:20.021Z,15.77
2017-10-25T22:01:48.508Z,17.10
2017-10-25T22:04:16.977Z,15.10
2017-10-25T22:06:45.499Z,19.27
2017-10-25T22:09:13.967Z,18.43
2017-10-25T22:11:42.463Z,18.67
2017-10-25T22:14:10.935Z,17.80
2017-10-25T22:16:39.599Z,15.73
2017-10-25T22:19:08.090Z,16.50
2017-10-25T22:21:36.543Z,17.30
2017-10-25T22:24:05.275Z,19.57
2017-10-25T22:26:33.830Z,19.00
2017-10-25T22:29:02.326Z,18.57
2017-10-25T22:31:30.887Z,16.10
2017-10-25T22:33:59.360Z,16.50
2017-10-25T22:36:28.599Z,15.23
2017-10-25T22:38:57.063Z,17.13
2017-10-25T22:41:25.648Z,17.73
2017-10-25T22:43:54.129Z,19.93
2017-10-25T22:46:22.669Z,17.80
2017-10-25T22:48:51.163Z,16.63
2017-10-25T22:51:20.397Z,16.27
2017-10-25T22:53:48.935Z,16.37
2017-10-25T22:56:18.236Z,16.57
2017-10-25T22:58:46.723Z,18.43
2017-10-25T23:01:15.207Z,20.33
2017-10-25T23:03:44.411Z,20.67
2017-10-25T23:06:13.162Z,20.97
2017-10-25T23:08:41.428Z,20.47
2017-10-25T23:11:10.768Z,19.07
2017-10-25T23:13:39.236Z,16.43
2017-10-25T23:16:07.976Z,17.30
2017-10-25T23:18:36.527Z,16.40
2017-10-25T23:21:05.059Z,17.07
2017-10-25T23:23:33.527Z,19.43
2017-10-25T23:26:02.030Z,19.73
2017-10-25T23:28:31.416Z,24.70
2017-10-25T23:30:59.902Z,19.13
2017-10-25T23:33:28.363Z,18.93
2017-10-25T23:35:57.624Z,18.40
2017-10-25T23:38:26.855Z,20.57
2017-10-25T23:40:56.119Z,19.90
2017-10-25T23:43:24.576Z,19.40
2017-10-25T23:45:53.055Z,19.23
2017-10-25T23:48:21.521Z,18.97
2017-10-25T23:50:49.991Z,18.87
2017-10-25T23:53:19.283Z,20.17
2017-10-25T23:55:48.528Z,19.13
2017-10-25T23:58:17.068Z,23.20
